Time;durP1;ratioP1;P1;durP2;ratioP2;P2;SDS_P1;SDS_P2;PMS_P1;PMS_P2;Temp;Humidity;BMP_temperature;BMP_pressure;BME280_temperature;BME280_humidity;BME280_pressure;Samples;Min_cycle;Max_cycle;Signal;HPM_P1;HPM_P2
2023/08/26 00:02:57;;;;;;;7.00;6.47;;;;;;;-144.30;51.61;83810.41;5070665;28;20240;-54
2023/08/26 00:08:50;;;;;;;6.75;6.38;;;;;;;-144.30;51.66;83760.75;5068667;28;20204;-45
2023/08/26 00:11:55;;;;;;;8.57;7.65;;;;;;;-144.30;51.81;83812.41;5070186;28;20192;-46
2023/08/26 00:14:59;;;;;;;8.38;7.25;;;;;;;-144.30;51.84;83782.59;5070547;28;20577;-55
2023/08/26 00:42:58;;;;;;;8.68;7.88;;;;;;;-144.30;52.68;83830.28;5065818;28;20203;-55
2023/08/26 00:49:45;;;;;;;8.02;7.32;;;;;;;-144.30;52.48;83820.34;5069294;28;20218;-54
2023/08/26 00:58:39;;;;;;;;;;;;;;;;;;;;;
2023/08/26 01:01:49;;;;;;;;;;;;;;;;;;;;;
2023/08/26 01:08:10;;;;;;;7.22;6.38;;;;;;;-144.30;52.71;83872.03;5108339;28;20585;-45
2023/08/26 01:14:55;;;;;;;8.35;6.95;;;;;;;-144.30;52.75;83917.72;5108187;28;20281;-56
2023/08/26 01:59:17;;;;;;;5.65;5.18;;;;;;;-144.30;52.29;84011.13;5107014;28;20198;-55
2023/08/26 02:02:22;;;;;;;7.45;5.32;;;;;;;-144.30;52.18;83957.47;5108450;28;20285;-55
2023/08/26 02:08:23;;;;;;;5.32;4.97;;;;;;;-144.30;52.58;84029.00;5107573;28;20202;-46
2023/08/26 02:14:17;;;;;;;5.90;5.28;;;;;;;-144.30;52.32;84054.84;5106172;28;20198;-55
2023/08/26 02:29:49;;;;;;;;;;;;;;;;;;;;;
2023/08/26 02:32:55;;;;;;;6.25;5.22;;;;;;;-144.30;53.71;84084.66;5108535;28;20213;-55
2023/08/26 02:35:26;;;;;;;5.90;5.07;;;;;;;-144.30;53.96;84064.78;5109255;28;20205;-55
2023/08/26 02:41:11;;;;;;;5.20;4.80;;;;;;;-144.30;53.92;84092.59;5107648;28;20198;-46
2023/08/26 02:47:19;;;;;;;5.63;5.10;;;;;;;-144.30;54.15;84060.78;5110273;28;20263;-46
2023/08/26 02:50:18;;;;;;;8.32;5.40;;;;;;;-144.30;54.47;84076.69;5110292;28;20191;-45
2023/08/26 02:53:19;;;;;;;8.65;4.95;;;;;;;-144.30;54.42;84084.66;5109760;28;20190;-55
2023/08/26 02:56:03;;;;;;;5.40;4.93;;;;;;;-144.30;54.59;84086.63;5110842;28;20309;-45
2023/08/26 02:59:01;;;;;;;7.03;5.55;;;;;;;-144.30;54.51;84084.66;5091910;28;20256;-44
2023/08/26 03:01:32;;;;;;;5.50;5.00;;;;;;;-144.30;54.53;84068.75;5109942;28;20589;-45
2023/08/26 03:04:02;;;;;;;6.57;6.00;;;;;;;-144.30;54.48;84048.88;5112399;28;20194;-45
2023/08/26 03:13:06;;;;;;;5.72;5.32;;;;;;;-144.30;55.27;84108.50;5108683;28;20191;-55
2023/08/26 03:22:43;;;;;;;6.15;5.50;;;;;;;-144.30;55.27;84036.94;5112285;28;20207;-55
2023/08/26 03:25:47;;;;;;;8.05;6.75;;;;;;;-144.30;55.56;84114.44;5109142;28;20681;-55
2023/08/26 03:28:30;;;;;;;6.43;6.03;;;;;;;-144.30;55.66;84102.53;5111352;28;20190;-45
2023/08/26 03:31:10;;;;;;;8.32;6.20;;;;;;;-144.30;55.90;84136.31;5109241;28;20206;-56
2023/08/26 03:43:06;;;;;;;7.63;6.60;;;;;;;-144.30;56.79;84116.44;5111283;28;20890;-45
2023/08/26 03:46:03;;;;;;;8.35;6.15;;;;;;;-144.30;56.87;84112.47;5110846;28;20203;-45
2023/08/26 03:55:00;;;;;;;7.03;6.43;;;;;;;-144.30;56.69;84096.56;5109097;28;20229;-52
2023/08/26 04:00:43;;;;;;;7.22;6.55;;;;;;;-144.30;56.87;84142.28;5103426;28;20206;-46
2023/08/26 04:03:32;;;;;;;8.73;5.90;;;;;;;-144.30;56.52;84076.69;5091719;28;20628;-46
2023/08/26 04:06:15;;;;;;;7.20;6.18;;;;;;;-144.30;56.34;84094.56;5092680;28;20199;-45
2023/08/26 04:08:54;;;;;;;7.82;7.00;;;;;;;-144.30;56.39;84082.66;5104308;28;20696;-46
2023/08/26 04:11:22;;;;;;;11.15;7.10;;;;;;;-144.30;56.51;84110.47;5110588;28;20198;-55
2023/08/26 04:13:54;;;;;;;8.07;7.28;;;;;;;-144.30;56.75;84082.66;5109608;28;20297;-55
2023/08/26 04:16:43;;;;;;;9.45;7.20;;;;;;;-144.30;56.70;84086.63;5108133;28;20219;-55
2023/08/26 04:19:30;;;;;;;8.30;7.20;;;;;;;-144.30;56.32;84036.94;5109125;28;20202;-55
2023/08/26 04:25:23;;;;;;;11.65;7.95;;;;;;;-144.30;54.50;83915.75;5096033;28;20234;-55
2023/08/26 04:28:12;;;;;;;7.45;6.78;;;;;;;-144.30;52.48;83754.78;5107622;28;20242;-55
2023/08/26 04:30:46;;;;;;;21.73;16.13;;;;;;;-144.30;49.48;83554.09;5099655;28;20255;-45
2023/08/26 04:33:29;;;;;;;14.75;11.68;;;;;;;-144.30;48.40;83488.53;5110331;28;20194;-54
2023/08/26 04:36:05;;;;;;;14.88;9.75;;;;;;;-144.30;46.97;83401.13;5110483;28;20259;-45
2023/08/26 04:38:50;;;;;;;9.48;7.80;;;;;;;-144.30;45.44;83303.75;5110442;28;20206;-45
2023/08/26 04:41:43;;;;;;;9.07;8.30;;;;;;;-144.30;43.96;83174.63;5099330;28;20665;-46
2023/08/26 04:44:34;;;;;;;8.13;7.35;;;;;;;-144.30;42.36;82995.84;5108121;28;20202;-46
2023/08/26 04:50:24;;;;;;;9.88;8.90;;;;;;;-144.30;39.02;82544.91;5107191;28;20214;-54
2023/08/26 04:52:59;;;;;;;9.25;8.52;;;;;;;-144.30;38.33;82469.44;5109986;28;20234;-45
2023/08/26 04:55:31;;;;;;;10.25;9.40;;;;;;;-144.30;38.06;82399.91;5108215;28;20230;-45
2023/08/26 04:57:59;;;;;;;9.98;9.10;;;;;;;-144.30;36.97;82252.94;5105275;28;20305;-54
2023/08/26 05:00:30;;;;;;;12.98;9.85;;;;;;;-144.30;35.97;82058.31;5110096;28;20285;-46
2023/08/26 05:03:12;;;;;;;12.35;11.32;;;;;;;-144.30;35.53;82020.56;5109871;28;20199;-54
2023/08/26 05:06:20;;;;;;;24.65;20.85;;;;;;;-144.30;34.96;81931.22;5109365;28;20202;-46
2023/08/26 05:08:58;;;;;;;10.20;9.43;;;;;;;-144.30;34.78;81925.25;5101023;28;20227;-54
2023/08/26 05:11:33;;;;;;;10.85;9.88;;;;;;;-144.30;34.06;81613.47;5089542;28;20199;-54
2023/08/26 05:14:07;;;;;;;15.43;13.88;;;;;;;-144.30;33.67;81609.50;5095710;28;20190;-53
2023/08/26 05:16:42;;;;;;;11.55;10.40;;;;;;;-144.30;33.67;81482.41;5108503;28;20658;-54
2023/08/26 05:19:16;;;;;;;12.48;10.35;;;;;;;-144.30;33.16;81462.56;5108350;28;20204;-48
2023/08/26 05:21:57;;;;;;;9.98;9.27;;;;;;;-144.30;33.01;81355.34;5108920;28;20721;-55
2023/08/26 05:24:37;;;;;;;15.40;12.30;;;;;;;-144.30;32.56;81287.81;5105368;28;20190;-48
2023/08/26 05:27:18;;;;;;;20.48;18.60;;;;;;;-144.30;31.88;81224.28;5106114;28;20194;-53
2023/08/26 05:30:09;;;;;;;18.17;15.73;;;;;;;-144.30;31.56;81256.06;5106121;28;20190;-48
2023/08/26 05:32:54;;;;;;;12.70;11.30;;;;;;;-144.30;32.15;81238.19;5107871;28;20192;-45
2023/08/26 05:35:43;;;;;;;17.25;15.27;;;;;;;-144.30;31.48;81162.72;5108883;28;20194;-49
2023/08/26 05:41:35;;;;;;;14.07;12.65;;;;;;;-144.30;31.05;81001.91;5107993;28;20619;-53
2023/08/26 05:44:27;;;;;;;18.02;16.27;;;;;;;-144.30;30.86;80958.22;5109707;28;20663;-53
2023/08/26 05:46:57;;;;;;;25.98;23.23;;;;;;;-144.30;30.19;80862.94;5104730;28;20209;-48
2023/08/26 05:49:30;;;;;;;18.02;12.70;;;;;;;-144.30;30.84;80924.47;5108420;28;20201;-53
2023/08/26 05:52:08;;;;;;;12.93;11.70;;;;;;;-144.30;31.23;81081.34;5109018;28;20198;-48
2023/08/26 05:54:43;;;;;;;16.33;14.75;;;;;;;-144.30;31.70;81224.28;5106612;28;20442;-55
2023/08/26 05:57:40;;;;;;;12.27;10.93;;;;;;;-144.30;31.10;81005.88;5106674;28;20750;-46
2023/08/26 06:00:38;;;;;;;10.90;9.95;;;;;;;-144.30;30.56;80817.28;5107771;28;20285;-55
2023/08/26 06:03:38;;;;;;;10.93;9.82;;;;;;;-144.30;30.22;80791.47;5108540;28;20278;-45
2023/08/26 06:22:26;;;;;;;14.43;11.75;;;;;;;-144.30;30.52;80860.94;5108918;28;20423;-53
2023/08/26 06:25:48;;;;;;;14.50;10.90;;;;;;;-144.30;30.64;80858.97;5112479;28;20198;-46
2023/08/26 06:28:19;;;;;;;10.13;9.13;;;;;;;-144.30;30.50;80864.91;5112039;28;20221;-55
2023/08/26 06:30:48;;;;;;;17.42;10.85;;;;;;;-144.30;29.98;80716.03;5112770;28;20201;-55
2023/08/26 06:33:19;;;;;;;14.90;10.38;;;;;;;-144.30;29.72;80581.03;5112781;28;20198;-54
2023/08/26 06:36:05;;;;;;;10.95;9.80;;;;;;;-144.30;29.55;80632.66;5113052;28;20650;-46
2023/08/26 06:39:11;;;;;;;17.30;10.07;;;;;;;-144.30;29.48;80608.81;5113601;28;20259;-54
2023/08/26 06:51:15;;;;;;;14.15;13.02;;;;;;;-144.30;28.98;80408.31;5106126;28;20194;-47
2023/08/26 06:53:45;;;;;;;9.50;8.75;;;;;;;-144.30;28.54;80307.09;5107494;28;20281;-45
2023/08/26 06:56:29;;;;;;;14.05;12.75;;;;;;;-144.30;28.13;80172.09;5111704;28;20226;-54
2023/08/26 06:59:21;;;;;;;8.98;8.23;;;;;;;-144.30;28.19;80283.28;5109228;28;20218;-46
2023/08/26 07:02:15;;;;;;;8.75;7.65;;;;;;;-144.30;27.97;80124.47;5109764;28;20224;-46
2023/08/26 07:05:39;;;;;;;9.38;8.07;;;;;;;-144.30;27.32;79945.84;5110890;28;20557;-47
2023/08/26 07:08:42;;;;;;;8.98;8.07;;;;;;;-144.30;27.26;80017.28;5112158;28;20193;-55
2023/08/26 07:15:05;;;;;;;;;;;;;;;;;;;;;
2023/08/26 07:27:08;;;;;;;8.82;7.90;;;;;;;-144.30;27.00;79848.59;5108392;28;20219;-54
2023/08/26 07:39:36;;;;;;;10.75;7.93;;;;;;;-144.30;26.79;79751.34;5108403;28;20228;-52
2023/08/26 07:45:46;;;;;;;7.40;6.80;;;;;;;-144.30;26.67;79880.34;5108640;28;20284;-52
2023/08/26 07:52:38;;;;;;;8.82;7.32;;;;;;;-144.30;26.14;79660.03;5090478;28;20223;-53
2023/08/26 08:02:08;;;;;;;8.43;6.85;;;;;;;-144.30;26.60;79739.44;5091531;28;20264;-51
2023/08/26 08:05:09;;;;;;;9.23;8.52;;;;;;;-144.30;26.33;79606.44;5091130;28;20194;-51
2023/08/26 08:07:46;;;;;;;8.50;7.90;;;;;;;-144.30;25.71;79245.28;5099178;28;20189;-53
2023/08/26 08:10:30;;;;;;;8.88;7.88;;;;;;;-144.30;25.34;78963.50;5111192;28;20201;-54
2023/08/26 08:16:50;;;;;;;;;;;;;;;;;;;;;
2023/08/26 08:19:55;;;;;;;7.93;7.32;;;;;;;-144.30;24.80;78439.72;5109477;28;20222;-53
2023/08/26 08:22:45;;;;;;;7.10;6.60;;;;;;;-144.30;24.66;78596.44;5109677;28;20197;-53
2023/08/26 08:25:13;;;;;;;6.90;6.40;;;;;;;-144.30;24.69;78745.25;5090816;28;20206;-53
2023/08/26 08:27:49;;;;;;;8.70;7.18;;;;;;;-144.30;25.53;79427.84;5105708;28;20767;-54
2023/08/26 08:30:25;;;;;;;8.20;7.22;;;;;;;-144.30;25.81;79517.16;5103900;28;20204;-53
2023/08/26 08:33:02;;;;;;;7.63;7.13;;;;;;;-144.30;25.57;79441.75;5108085;28;20194;-52
2023/08/26 08:35:39;;;;;;;9.32;7.07;;;;;;;-144.30;25.80;79253.22;5109961;28;20198;-53
2023/08/26 08:38:23;;;;;;;8.65;7.95;;;;;;;-144.30;25.75;79324.66;5109630;28;20301;-54
2023/08/26 08:40:58;;;;;;;8.82;8.15;;;;;;;-144.30;25.80;79306.78;5106814;28;20230;-54
2023/08/26 08:43:47;;;;;;;10.05;8.32;;;;;;;-144.30;25.91;79366.31;5109954;28;20665;-54
2023/08/26 08:46:31;;;;;;;7.15;6.70;;;;;;;-144.30;25.73;79479.44;5109092;28;20685;-54
2023/08/26 08:49:19;;;;;;;9.52;7.97;;;;;;;-144.30;26.14;79727.50;5108842;28;20201;-54
2023/08/26 08:51:55;;;;;;;7.30;6.78;;;;;;;-144.30;26.31;79729.50;5110010;28;20204;-54
2023/08/26 08:55:05;;;;;;;7.70;7.00;;;;;;;-144.30;26.94;80055.00;5109528;28;20201;-53
2023/08/26 08:57:59;;;;;;;8.50;6.88;;;;;;;-144.30;26.84;79898.19;5069607;28;20238;-53
2023/08/26 09:00:59;;;;;;;12.90;7.35;;;;;;;-144.30;27.04;80136.38;5069362;28;20200;-52
2023/08/26 09:03:36;;;;;;;8.13;7.40;;;;;;;-144.30;27.10;80080.81;5068833;28;20195;-54
2023/08/26 09:06:08;;;;;;;9.32;7.45;;;;;;;-144.30;27.11;80203.88;5067715;28;20695;-53
2023/08/26 09:08:46;;;;;;;8.20;7.45;;;;;;;-144.30;26.71;80100.66;5069279;28;20196;-54
2023/08/26 09:11:30;;;;;;;7.82;7.07;;;;;;;-144.30;26.69;79795.00;5068231;28;20687;-54
2023/08/26 09:14:08;;;;;;;8.65;7.65;;;;;;;-144.30;26.64;79880.34;5068478;28;20242;-53
2023/08/26 09:16:53;;;;;;;8.35;7.60;;;;;;;-144.30;26.58;79918.06;5068313;28;20214;-53
2023/08/26 09:19:37;;;;;;;18.92;7.90;;;;;;;-144.30;26.66;79914.09;5069345;28;20215;-53
2023/08/26 09:22:35;;;;;;;;;;;;;;;;;;;;;
2023/08/26 09:25:23;;;;;;;8.63;7.97;;;;;;;-144.30;26.67;79858.50;5066949;28;20195;-53
2023/08/26 09:28:13;;;;;;;9.55;8.30;;;;;;;-144.30;26.07;79568.75;5066416;28;20195;-53
2023/08/26 09:31:16;;;;;;;14.45;8.82;;;;;;;-144.30;25.36;79189.72;5068697;28;20202;-54
2023/08/26 09:34:04;;;;;;;8.45;7.70;;;;;;;-144.30;25.45;79215.50;5067769;28;20191;-53
2023/08/26 09:36:53;;;;;;;9.02;8.18;;;;;;;-144.30;25.10;79017.06;5066602;28;20211;-53
2023/08/26 09:39:35;;;;;;;9.45;8.82;;;;;;;-144.30;25.20;78903.97;5067595;28;20223;-52
2023/08/26 09:42:27;;;;;;;9.02;8.20;;;;;;;-144.30;24.90;78808.72;5068253;28;20195;-53
2023/08/26 09:45:31;;;;;;;9.15;7.55;;;;;;;-144.30;24.68;78669.84;5068264;28;20211;-53
2023/08/26 09:48:08;;;;;;;8.80;8.02;;;;;;;-144.30;24.79;78707.53;5068433;28;20191;-54
2023/08/26 09:51:04;;;;;;;9.13;8.23;;;;;;;-144.30;24.51;78697.63;5068014;28;20202;-53
2023/08/26 09:53:49;;;;;;;8.60;7.75;;;;;;;-144.30;24.70;78753.19;5068459;28;20203;-53
2023/08/26 09:59:30;;;;;;;9.27;8.38;;;;;;;-144.30;25.28;79263.13;5107767;28;20225;-54
2023/08/26 10:02:34;;;;;;;8.80;7.97;;;;;;;-144.30;25.01;79193.69;5107221;28;20251;-54
2023/08/26 10:05:08;;;;;;;8.30;7.72;;;;;;;-144.30;25.43;79348.47;5087614;28;20202;-54
2023/08/26 10:07:53;;;;;;;8.52;7.88;;;;;;;-144.30;25.72;79673.94;5106677;28;20201;-54
2023/08/26 10:10:45;;;;;;;9.05;8.35;;;;;;;-144.30;25.85;79842.63;5108408;28;20198;-53
2023/08/26 10:13:38;;;;;;;8.98;8.13;;;;;;;-144.30;27.12;80386.50;5108977;28;20213;-53
2023/08/26 10:16:23;;;;;;;10.35;8.07;;;;;;;-144.30;28.09;80680.28;5099538;28;20202;-52
2023/08/26 10:19:14;;;;;;;9.02;8.18;;;;;;;-144.30;28.79;80946.31;5097300;28;20206;-53
2023/08/26 10:22:03;;;;;;;8.13;7.53;;;;;;;-144.30;29.24;81101.19;5095742;28;20236;-53
2023/08/26 10:24:38;;;;;;;8.55;7.80;;;;;;;-144.30;29.86;81267.97;5102863;28;20217;-53
2023/08/26 10:27:25;;;;;;;10.05;8.75;;;;;;;-144.30;30.30;81295.75;5108155;28;20741;-53
2023/08/26 10:30:15;;;;;;;10.48;9.52;;;;;;;-144.30;30.94;81476.47;5106942;28;20202;-53
2023/08/26 10:33:01;;;;;;;14.25;11.80;;;;;;;-144.30;31.38;81585.66;5108429;28;20238;-52
2023/08/26 10:35:43;;;;;;;10.55;9.70;;;;;;;-144.30;31.60;81593.63;5107401;28;20201;-54
2023/08/26 10:38:18;;;;;;;12.23;10.10;;;;;;;-144.30;31.90;81653.19;5102284;28;20783;-54
2023/08/26 10:40:52;;;;;;;9.65;8.82;;;;;;;-144.30;31.81;81631.34;5106094;28;20582;-54
2023/08/26 10:43:25;;;;;;;9.70;8.80;;;;;;;-144.30;31.87;81673.03;5106725;28;20243;-54
2023/08/26 10:46:01;;;;;;;9.75;8.80;;;;;;;-144.30;32.05;81686.94;5106669;28;20213;-53
2023/08/26 10:48:53;;;;;;;9.52;8.73;;;;;;;-144.30;31.98;81738.56;5106741;28;20202;-54
2023/08/26 10:51:31;;;;;;;11.57;8.80;;;;;;;-144.30;32.05;81780.28;5105245;28;20183;-54
2023/08/26 10:54:17;;;;;;;12.68;11.52;;;;;;;-144.30;32.00;81716.72;5107326;28;20187;-55
2023/08/26 10:57:09;;;;;;;10.50;8.73;;;;;;;-144.30;31.99;81800.13;5106159;28;20226;-53
2023/08/26 10:59:47;;;;;;;8.77;8.13;;;;;;;-144.30;32.50;81796.16;5107175;28;20218;-52
2023/08/26 11:02:18;;;;;;;9.30;8.55;;;;;;;-144.30;32.57;81841.84;5107724;28;20671;-54
2023/08/26 11:04:46;;;;;;;9.38;8.65;;;;;;;-144.30;32.88;81839.84;5110098;28;20577;-52
2023/08/26 11:07:22;;;;;;;14.07;12.60;;;;;;;-144.30;32.98;81823.97;5110393;28;20189;-52
2023/08/26 11:09:58;;;;;;;8.85;8.07;;;;;;;-144.30;32.80;81796.16;5111206;28;20186;-52
2023/08/26 11:12:35;;;;;;;9.20;8.50;;;;;;;-144.30;32.87;81823.97;5110484;28;20618;-51
2023/08/26 11:15:09;;;;;;;9.80;9.07;;;;;;;-144.30;32.99;81804.09;5110076;28;20662;-52
2023/08/26 11:17:43;;;;;;;10.75;8.48;;;;;;;-144.30;33.20;81851.78;5110752;28;20259;-51
2023/08/26 11:20:14;;;;;;;10.18;8.45;;;;;;;-144.30;33.33;81829.94;5105620;28;20306;-52
2023/08/26 11:22:58;;;;;;;9.23;8.52;;;;;;;-144.30;33.12;81825.94;5110452;28;20226;-52
2023/08/26 11:25:43;;;;;;;9.55;8.68;;;;;;;-144.30;33.38;81816.03;5110691;28;20670;-52
2023/08/26 11:28:47;;;;;;;10.00;9.30;;;;;;;-144.30;33.40;81821.97;5109292;28;20191;-52
2023/08/26 11:31:29;;;;;;;9.48;7.45;;;;;;;-144.30;33.20;81825.94;5110746;28;20198;-54
2023/08/26 11:34:02;;;;;;;10.15;8.40;;;;;;;-144.30;33.39;81833.91;5107022;28;20199;-54
2023/08/26 11:36:38;;;;;;;9.20;8.60;;;;;;;-144.30;33.25;81831.91;5110514;28;20218;-54
2023/08/26 11:39:37;;;;;;;10.65;7.97;;;;;;;-144.30;32.83;81855.75;5109503;28;20233;-51
2023/08/26 11:42:15;;;;;;;8.70;7.90;;;;;;;-144.30;33.24;81863.69;5108332;28;20214;-54
2023/08/26 11:44:55;;;;;;;9.15;8.52;;;;;;;-144.30;33.35;81891.50;5108240;28;20198;-54
2023/08/26 11:47:45;;;;;;;11.13;7.85;;;;;;;-144.30;33.21;81891.50;5110627;28;20203;-54
2023/08/26 11:56:53;;;;;;;9.07;8.35;;;;;;;-144.30;32.92;81955.03;5106112;28;20269;-50
2023/08/26 12:22:19;;;;;;;8.07;7.47;;;;;;;-144.30;32.36;81889.50;5107640;28;20202;-52
2023/08/26 12:25:38;;;;;;;;;;;;;;;;;;;;;
2023/08/26 12:28:45;;;;;;;9.57;8.68;;;;;;;-144.30;32.03;81974.91;5108791;28;20199;-54
2023/08/26 12:31:27;;;;;;;8.55;7.95;;;;;;;-144.30;32.37;81998.72;5109887;28;20190;-54
2023/08/26 12:44:09;;;;;;;7.93;7.43;;;;;;;-144.30;31.94;81947.09;5108963;28;20218;-51
2023/08/26 12:46:49;;;;;;;9.20;8.27;;;;;;;-144.30;31.86;81935.19;5106911;28;20212;-50
2023/08/26 12:49:56;;;;;;;8.70;8.00;;;;;;;-144.30;32.00;81947.09;5107705;28;20724;-50
2023/08/26 12:52:35;;;;;;;8.43;7.70;;;;;;;-144.30;32.21;81992.78;5108623;28;20269;-52
2023/08/26 12:55:06;;;;;;;12.20;8.35;;;;;;;-144.30;32.34;81972.91;5107919;28;20203;-54
2023/08/26 12:57:37;;;;;;;9.07;8.40;;;;;;;-144.30;32.06;81968.94;5106715;28;20735;-51
2023/08/26 13:00:06;;;;;;;21.55;16.88;;;;;;;-144.30;31.96;81957.03;5107110;28;20215;-53
2023/08/26 13:02:53;;;;;;;9.35;8.43;;;;;;;-144.30;31.92;81903.41;5103975;28;20199;-53
2023/08/26 13:05:36;;;;;;;11.70;10.52;;;;;;;-144.30;31.98;81970.94;5107097;28;20204;-54
2023/08/26 13:08:14;;;;;;;9.73;7.20;;;;;;;-144.30;31.98;81897.44;5108241;28;20202;-53
2023/08/26 13:11:06;;;;;;;7.68;6.95;;;;;;;-144.30;31.77;81939.16;5107797;28;20202;-52
2023/08/26 13:14:12;;;;;;;8.23;7.63;;;;;;;-144.30;31.58;81935.19;5107551;28;20646;-52
2023/08/26 13:17:02;;;;;;;8.45;7.85;;;;;;;-144.30;31.52;81943.13;5088397;28;20952;-51
2023/08/26 13:20:10;;;;;;;7.75;7.25;;;;;;;-144.30;31.37;81927.22;5089671;28;20232;-53
2023/08/26 13:23:13;;;;;;;7.93;7.32;;;;;;;-144.30;31.47;81929.22;5089527;28;20191;-52
2023/08/26 13:39:04;;;;;;;8.00;7.35;;;;;;;-144.30;31.66;82014.63;5092972;28;20203;-52
2023/08/26 13:42:05;;;;;;;8.05;7.30;;;;;;;-144.30;31.66;82608.47;5109560;28;20709;-52
2023/08/26 13:51:27;;;;;;;7.88;7.22;;;;;;;-144.30;31.44;81966.94;5107503;28;20658;-52
2023/08/26 14:00:45;;;;;;;8.25;7.63;;;;;;;-144.30;31.10;81964.97;5102246;28;20723;-51
2023/08/26 14:03:15;;;;;;;7.28;6.70;;;;;;;-144.30;31.21;81992.78;5104044;28;20206;-51
2023/08/26 14:05:51;;;;;;;9.30;6.80;;;;;;;-144.30;31.06;81955.03;5103295;28;20597;-54
2023/08/26 14:08:23;;;;;;;7.75;7.15;;;;;;;-144.30;30.98;81955.03;5104878;28;20266;-53
2023/08/26 14:11:00;;;;;;;7.50;6.85;;;;;;;-144.30;31.21;81964.97;5107926;28;20290;-52
2023/08/26 14:13:31;;;;;;;9.15;7.68;;;;;;;-144.30;31.05;82008.66;5105869;28;20198;-50
2023/08/26 14:16:12;;;;;;;7.47;6.88;;;;;;;-144.30;31.25;81994.75;5105320;28;20194;-50
2023/08/26 14:18:52;;;;;;;7.63;7.10;;;;;;;-144.30;31.28;81978.88;5106606;28;20198;-51
2023/08/26 14:21:22;;;;;;;7.38;6.80;;;;;;;-144.30;31.00;81949.09;5105848;28;20248;-51
2023/08/26 14:23:54;;;;;;;9.20;7.45;;;;;;;-144.30;31.03;81941.13;5107184;28;20222;-51
2023/08/26 14:26:35;;;;;;;7.55;6.90;;;;;;;-144.30;31.03;81978.88;5108350;28;20195;-51
2023/08/26 14:29:10;;;;;;;7.18;6.68;;;;;;;-144.30;31.15;81959.00;5107776;28;20655;-51
2023/08/26 14:31:45;;;;;;;7.32;6.70;;;;;;;-144.30;31.25;82010.66;5105580;28;20195;-51
2023/08/26 14:34:28;;;;;;;8.32;7.10;;;;;;;-144.30;31.27;81945.09;5106921;28;20222;-52
2023/08/26 14:37:13;;;;;;;7.22;6.55;;;;;;;-144.30;31.02;81959.00;5108454;28;20209;-53
2023/08/26 14:39:56;;;;;;;7.18;6.80;;;;;;;-144.30;31.32;81970.94;5112753;28;20279;-54
2023/08/26 14:42:26;;;;;;;8.60;7.88;;;;;;;-144.30;31.22;81943.13;5112110;28;20209;-54
2023/08/26 14:44:59;;;;;;;7.55;7.10;;;;;;;-144.30;31.19;81998.72;5113395;28;20251;-55
2023/08/26 14:47:42;;;;;;;7.68;7.05;;;;;;;-144.30;31.19;81955.03;5112001;28;20194;-54
2023/08/26 14:50:22;;;;;;;7.70;7.18;;;;;;;-144.30;31.49;81980.84;5112281;28;20191;-54
2023/08/26 14:53:06;;;;;;;7.90;7.20;;;;;;;-144.30;31.65;82014.63;5111079;28;20195;-54
2023/08/26 14:55:41;;;;;;;7.95;7.20;;;;;;;-144.30;31.57;81955.03;5112022;28;20636;-54
2023/08/26 14:58:22;;;;;;;7.50;7.00;;;;;;;-144.30;31.50;81955.03;5090983;28;20278;-53
2023/08/26 15:01:05;;;;;;;7.35;6.95;;;;;;;-144.30;31.40;81962.97;5058763;28;20319;-54
2023/08/26 15:03:42;;;;;;;7.60;6.90;;;;;;;-144.30;31.61;81976.88;5049193;28;20673;-51
2023/08/26 15:06:15;;;;;;;7.82;7.32;;;;;;;-144.30;31.43;81974.91;5051375;28;20200;-54
2023/08/26 15:08:50;;;;;;;7.97;7.30;;;;;;;-144.30;31.56;81980.84;5060470;28;20239;-54
2023/08/26 15:11:52;;;;;;;7.78;7.25;;;;;;;-144.30;31.38;82004.69;5071587;28;20195;-53
2023/08/26 15:17:23;;;;;;;7.85;7.20;;;;;;;-144.30;31.54;81990.78;5071092;28;20207;-51
2023/08/26 15:19:58;;;;;;;9.05;7.88;;;;;;;-144.30;31.27;81972.91;5079211;28;20211;-51
2023/08/26 15:22:28;;;;;;;8.48;7.93;;;;;;;-144.30;31.24;82004.69;5082041;28;20282;-51
2023/08/26 15:25:07;;;;;;;9.52;7.85;;;;;;;-144.30;31.23;81984.81;5079121;28;20227;-51
2023/08/26 15:27:51;;;;;;;7.82;7.22;;;;;;;-144.30;31.00;82022.56;5082574;28;20203;-53
2023/08/26 15:30:43;;;;;;;9.15;6.97;;;;;;;-144.30;31.06;81998.72;5091325;28;20191;-53
2023/08/26 15:33:15;;;;;;;8.40;7.60;;;;;;;-144.30;31.32;81998.72;5078447;28;20204;-52
2023/08/26 15:35:51;;;;;;;14.13;8.00;;;;;;;-144.30;31.12;82024.56;5073499;28;20695;-51
2023/08/26 15:38:23;;;;;;;11.32;6.78;;;;;;;-144.30;31.03;82004.69;5066555;28;20622;-51
2023/08/26 15:40:56;;;;;;;8.00;7.40;;;;;;;-144.30;30.96;82008.66;5074429;28;20222;-52
2023/08/26 15:43:36;;;;;;;7.30;6.80;;;;;;;-144.30;31.09;81982.84;5071675;28;20222;-52
2023/08/26 15:46:17;;;;;;;11.02;6.68;;;;;;;-144.30;30.86;81966.94;5051472;28;20208;-52
2023/08/26 15:49:16;;;;;;;7.13;6.63;;;;;;;-144.30;30.95;81955.03;5056302;28;20187;-52
2023/08/26 15:51:50;;;;;;;7.28;6.78;;;;;;;-144.30;31.05;81974.91;5060119;28;20668;-53
2023/08/26 15:54:19;;;;;;;9.63;7.05;;;;;;;-144.30;31.01;81972.91;5078721;28;20204;-53
2023/08/26 15:56:52;;;;;;;6.70;6.30;;;;;;;-144.30;31.12;81966.94;5088756;28;20322;-53
2023/08/26 15:59:32;;;;;;;8.10;6.50;;;;;;;-144.30;31.01;82008.66;5104723;28;20206;-53
2023/08/26 16:02:16;;;;;;;8.98;6.88;;;;;;;-144.30;30.94;82014.63;5110175;28;20685;-52
2023/08/26 16:04:54;;;;;;;7.40;6.65;;;;;;;-144.30;31.20;82002.69;5108115;28;20194;-53
2023/08/26 16:07:45;;;;;;;6.95;6.55;;;;;;;-144.30;31.08;82002.69;5108269;28;20256;-51
2023/08/26 16:10:20;;;;;;;8.90;7.22;;;;;;;-144.30;31.25;82038.44;5108889;28;20239;-53
2023/08/26 16:12:59;;;;;;;6.63;6.22;;;;;;;-144.30;31.37;82010.66;5098443;28;20216;-54
2023/08/26 16:15:48;;;;;;;7.15;6.32;;;;;;;-144.30;31.25;82104.00;5110711;28;20198;-50
2023/08/26 16:18:31;;;;;;;6.40;5.95;;;;;;;-144.30;31.51;82062.28;5107607;28;20198;-51
2023/08/26 16:21:18;;;;;;;7.20;6.57;;;;;;;-144.30;31.49;82054.34;5108085;28;20225;-51
2023/08/26 16:23:50;;;;;;;7.80;6.43;;;;;;;-144.30;31.85;82086.13;5110738;28;20275;-53
2023/08/26 16:26:31;;;;;;;6.68;6.07;;;;;;;-144.30;31.32;82115.91;5110115;28;20315;-54
2023/08/26 16:29:10;;;;;;;6.18;5.78;;;;;;;-144.30;31.43;81984.81;5109857;28;20191;-54
2023/08/26 16:31:54;;;;;;;8.63;7.00;;;;;;;-144.30;31.50;82139.75;5110798;28;20286;-54
2023/08/26 16:34:31;;;;;;;8.80;6.53;;;;;;;-144.30;31.64;82157.63;5109312;28;20256;-52
2023/08/26 16:37:04;;;;;;;6.63;6.20;;;;;;;-144.30;31.69;82185.41;5110539;28;20198;-53
2023/08/26 16:39:51;;;;;;;8.98;6.82;;;;;;;-144.30;31.83;82098.03;5109731;28;20225;-53
2023/08/26 16:42:45;;;;;;;6.22;5.63;;;;;;;-144.30;31.92;82221.16;5108888;28;20191;-53
2023/08/26 16:49:02;;;;;;;6.90;6.40;;;;;;;-144.30;32.22;82239.03;5109912;28;20594;-54
2023/08/26 16:51:59;;;;;;;7.13;6.15;;;;;;;-144.30;32.25;82229.09;5110394;28;20683;-54
2023/08/26 16:54:29;;;;;;;9.65;6.35;;;;;;;-144.30;32.15;82243.00;5109140;28;20228;-54
2023/08/26 16:57:03;;;;;;;8.85;6.32;;;;;;;-144.30;32.11;82266.84;5106350;28;20230;-54
2023/08/26 16:59:47;;;;;;;10.25;6.70;;;;;;;-144.30;32.42;82298.63;5109363;28;20690;-54
2023/08/26 17:02:29;;;;;;;9.02;6.07;;;;;;;-144.30;32.65;82231.09;5109745;28;20203;-54
2023/08/26 17:05:11;;;;;;;8.75;6.45;;;;;;;-144.30;32.78;82336.38;5108602;28;20742;-54
2023/08/26 17:07:58;;;;;;;8.00;6.22;;;;;;;-144.30;32.92;82354.25;5109709;28;20205;-52
2023/08/26 17:10:26;;;;;;;7.22;6.53;;;;;;;-144.30;32.87;82334.38;5108198;28;20579;-51
2023/08/26 17:13:06;;;;;;;6.18;5.78;;;;;;;-144.30;32.91;82384.03;5104568;28;20278;-53
2023/08/26 17:15:46;;;;;;;9.43;6.43;;;;;;;-144.30;32.91;82380.06;5108772;28;20248;-53
2023/08/26 17:18:32;;;;;;;7.10;6.45;;;;;;;-144.30;33.29;82413.81;5109140;28;20194;-53
2023/08/26 17:21:17;;;;;;;17.13;6.78;;;;;;;-144.30;33.20;82453.56;5109798;28;20218;-51
2023/08/26 17:24:10;;;;;;;8.80;6.78;;;;;;;-144.30;33.33;82433.69;5108339;28;20205;-50
2023/08/26 17:26:59;;;;;;;8.90;6.50;;;;;;;-144.30;33.75;82421.78;5109233;28;20645;-51
2023/08/26 17:29:54;;;;;;;7.10;6.45;;;;;;;-144.30;33.91;82451.56;5109787;28;20611;-51
2023/08/26 17:32:47;;;;;;;7.45;6.75;;;;;;;-144.30;34.08;82505.19;5108430;28;20206;-52
2023/08/26 17:35:19;;;;;;;11.75;6.53;;;;;;;-144.30;34.18;82515.13;5108035;28;20190;-51
2023/08/26 17:38:11;;;;;;;7.38;6.20;;;;;;;-144.30;34.03;82527.03;5109091;28;20198;-50